Sinclair, ME (04779)

12:45 AM EST on December 06, 2016 (GMT -0500)
Main Street | | Change Station

Elev 623 ft 47.23 °N, 68.29 °W | Updated 39 seconds ago

Overcast
Overcast
16.0 °F
Feels Like 16 °F
N
1.1
Wind Variable Wind from WNW
Gusts 2.5 mph

Today
High -- | Low -- °F
--% Chance of Precip.
Yesterday
High -- | Low -- °F
Precip. -- in
Pressure 29.89 in
Visibility 10.0 miles
Clouds Mostly Cloudy 700 ft
Overcast 5500 ft
Windchill 16 °F
Dew Point 10 °F
Humidity 75%
Rainfall 0.00 in
Snow Depth Not available.
7:04 AM 3:43 PM
Waxing Crescent, 38% visible
SPECI KFVE 060504Z AUTO 00000KT 10SM BKN007 OVC055 M09/M12 A2989 RMK AO2 T10891117
Pressure 29.89 in
Visibility 10.0 miles
Clouds Mostly Cloudy 700 ft
Overcast 5500 ft
Windchill 16 °F
Dew Point 10 °F
Humidity 75%
Rainfall 0.00 in
Snow Depth Not available.
7:04 AM 3:43 PM
Waxing Crescent, 38% visible
SPECI KFVE 060504Z AUTO 00000KT 10SM BKN007 OVC055 M09/M12 A2989 RMK AO2 T10891117

10-Day Weather Forecast

Almanac

Astronomy

Dec. 06, 2016 Rise Set
Actual Time
Civil Twilight
Nautical Twilight
Astronomical Twilight
Moon
Length of Visible Light
Length of Day
Tomorrow will be .
, % of the Moon is Illuminated

Today's Extremes

State Highs State Lows

Community

WunderPhotos

Upload Photos

1,955,931 photos uploaded!

WunderBlog® & News

Nearby

Air Quality

  Air Quality AQ Index Pollutant
Not available.

Snow Depth

Station Depth Elevation

Earthquake Activity

City Distance Mag. Time & Date
Minimum magnitude displayed is 2.5.

Coastal Water Temperatures

Place Temperature

Stations

Nearby Weather Stations

Station Location Temp. Windchill Dew Point Humidity Wind Precip. Elev Updated Type
                   

Watches & Warnings

There are currently no watches in effect.